sensor_id;sensor_type;location;lat;lon;timestamp;P1;durP1;ratioP1;P2;durP2;ratioP2
16892;SDS011;8563;52.242;9.098;2023-04-05T00:02:02;2.27;;;1.77;;
16892;SDS011;8563;52.242;9.098;2023-04-05T00:04:35;2.23;;;1.40;;
16892;SDS011;8563;52.242;9.098;2023-04-05T00:07:07;3.40;;;1.80;;
16892;SDS011;8563;52.242;9.098;2023-04-05T00:09:41;2.17;;;1.50;;
16892;SDS011;8563;52.242;9.098;2023-04-05T00:12:15;4.47;;;1.77;;
16892;SDS011;8563;52.242;9.098;2023-04-05T00:14:47;2.97;;;1.80;;
16892;SDS011;8563;52.242;9.098;2023-04-05T00:17:19;2.67;;;1.37;;
16892;SDS011;8563;52.242;9.098;2023-04-05T00:19:51;3.43;;;1.50;;
16892;SDS011;8563;52.242;9.098;2023-04-05T00:22:26;3.40;;;2.00;;
16892;SDS011;8563;52.242;9.098;2023-04-05T00:25:01;2.77;;;1.73;;
16892;SDS011;8563;52.242;9.098;2023-04-05T00:27:34;3.63;;;2.10;;
16892;SDS011;8563;52.242;9.098;2023-04-05T00:30:07;3.80;;;2.13;;
16892;SDS011;8563;52.242;9.098;2023-04-05T00:32:39;5.97;;;2.47;;
16892;SDS011;8563;52.242;9.098;2023-04-05T00:35:11;3.47;;;2.13;;
16892;SDS011;8563;52.242;9.098;2023-04-05T00:37:44;4.43;;;2.20;;
16892;SDS011;8563;52.242;9.098;2023-04-05T00:40:16;3.90;;;2.07;;
16892;SDS011;8563;52.242;9.098;2023-04-05T00:42:49;2.93;;;2.00;;
16892;SDS011;8563;52.242;9.098;2023-04-05T00:45:22;3.90;;;2.00;;
16892;SDS011;8563;52.242;9.098;2023-04-05T00:47:54;3.43;;;2.07;;
16892;SDS011;8563;52.242;9.098;2023-04-05T00:50:27;2.80;;;1.83;;
16892;SDS011;8563;52.242;9.098;2023-04-05T00:53:00;3.90;;;2.07;;
16892;SDS011;8563;52.242;9.098;2023-04-05T00:55:32;3.00;;;1.80;;
16892;SDS011;8563;52.242;9.098;2023-04-05T00:58:07;2.80;;;1.87;;
16892;SDS011;8563;52.242;9.098;2023-04-05T01:00:39;2.77;;;1.73;;
16892;SDS011;8563;52.242;9.098;2023-04-05T01:03:15;3.87;;;2.10;;
16892;SDS011;8563;52.242;9.098;2023-04-05T01:05:50;2.30;;;1.83;;
16892;SDS011;8563;52.242;9.098;2023-04-05T01:08:31;3.40;;;2.20;;
16892;SDS011;8563;52.242;9.098;2023-04-05T01:11:14;3.27;;;2.00;;
16892;SDS011;8563;52.242;9.098;2023-04-05T01:13:49;3.10;;;2.00;;
16892;SDS011;8563;52.242;9.098;2023-04-05T01:16:21;3.60;;;2.00;;
16892;SDS011;8563;52.242;9.098;2023-04-05T01:18:53;4.73;;;2.10;;
16892;SDS011;8563;52.242;9.098;2023-04-05T01:24:47;2.20;;;1.83;;
16892;SDS011;8563;52.242;9.098;2023-04-05T01:27:36;2.80;;;1.97;;
16892;SDS011;8563;52.242;9.098;2023-04-05T01:30:29;3.83;;;1.83;;
16892;SDS011;8563;52.242;9.098;2023-04-05T01:33:07;5.03;;;2.10;;
16892;SDS011;8563;52.242;9.098;2023-04-05T01:35:47;2.37;;;1.90;;
16892;SDS011;8563;52.242;9.098;2023-04-05T01:38:24;4.27;;;2.20;;
16892;SDS011;8563;52.242;9.098;2023-04-05T01:40:57;4.47;;;2.10;;
16892;SDS011;8563;52.242;9.098;2023-04-05T01:43:30;4.23;;;2.60;;
16892;SDS011;8563;52.242;9.098;2023-04-05T01:46:03;3.83;;;2.07;;
16892;SDS011;8563;52.242;9.098;2023-04-05T01:48:36;4.20;;;2.17;;
16892;SDS011;8563;52.242;9.098;2023-04-05T01:51:08;3.83;;;1.90;;
16892;SDS011;8563;52.242;9.098;2023-04-05T01:53:40;2.17;;;1.60;;
16892;SDS011;8563;52.242;9.098;2023-04-05T01:56:12;5.23;;;2.20;;
16892;SDS011;8563;52.242;9.098;2023-04-05T01:58:45;3.83;;;2.10;;
16892;SDS011;8563;52.242;9.098;2023-04-05T02:01:18;5.10;;;2.23;;
16892;SDS011;8563;52.242;9.098;2023-04-05T02:03:50;4.73;;;2.37;;
16892;SDS011;8563;52.242;9.098;2023-04-05T02:06:23;4.87;;;2.53;;
16892;SDS011;8563;52.242;9.098;2023-04-05T02:08:55;4.53;;;2.10;;
16892;SDS011;8563;52.242;9.098;2023-04-05T02:11:27;4.27;;;2.13;;
16892;SDS011;8563;52.242;9.098;2023-04-05T02:14:02;4.40;;;1.90;;
16892;SDS011;8563;52.242;9.098;2023-04-05T02:16:35;3.23;;;2.00;;
16892;SDS011;8563;52.242;9.098;2023-04-05T02:19:07;2.83;;;1.90;;
16892;SDS011;8563;52.242;9.098;2023-04-05T02:21:39;3.37;;;2.10;;
16892;SDS011;8563;52.242;9.098;2023-04-05T02:24:11;4.33;;;2.30;;
16892;SDS011;8563;52.242;9.098;2023-04-05T02:26:43;4.27;;;2.77;;
16892;SDS011;8563;52.242;9.098;2023-04-05T02:29:16;3.37;;;2.20;;
16892;SDS011;8563;52.242;9.098;2023-04-05T02:31:49;4.50;;;2.40;;
16892;SDS011;8563;52.242;9.098;2023-04-05T02:34:22;3.97;;;2.57;;
16892;SDS011;8563;52.242;9.098;2023-04-05T02:36:54;5.47;;;2.43;;
16892;SDS011;8563;52.242;9.098;2023-04-05T02:39:26;2.77;;;2.10;;
16892;SDS011;8563;52.242;9.098;2023-04-05T02:41:59;3.80;;;2.30;;
16892;SDS011;8563;52.242;9.098;2023-04-05T02:44:31;3.93;;;2.27;;
16892;SDS011;8563;52.242;9.098;2023-04-05T02:47:05;3.63;;;2.13;;
16892;SDS011;8563;52.242;9.098;2023-04-05T02:49:38;3.03;;;2.23;;
16892;SDS011;8563;52.242;9.098;2023-04-05T02:52:12;3.93;;;2.10;;
16892;SDS011;8563;52.242;9.098;2023-04-05T02:54:49;6.07;;;2.17;;
16892;SDS011;8563;52.242;9.098;2023-04-05T02:57:26;5.30;;;2.37;;
16892;SDS011;8563;52.242;9.098;2023-04-05T03:00:06;5.93;;;2.60;;
16892;SDS011;8563;52.242;9.098;2023-04-05T03:02:42;4.27;;;2.07;;
16892;SDS011;8563;52.242;9.098;2023-04-05T03:05:14;5.27;;;2.40;;
16892;SDS011;8563;52.242;9.098;2023-04-05T03:07:51;4.80;;;2.30;;
16892;SDS011;8563;52.242;9.098;2023-04-05T03:10:29;3.60;;;2.20;;
16892;SDS011;8563;52.242;9.098;2023-04-05T03:13:12;5.43;;;2.10;;
16892;SDS011;8563;52.242;9.098;2023-04-05T03:15:46;2.97;;;1.80;;
16892;SDS011;8563;52.242;9.098;2023-04-05T03:18:22;3.43;;;2.10;;
16892;SDS011;8563;52.242;9.098;2023-04-05T03:20:58;3.73;;;2.27;;
16892;SDS011;8563;52.242;9.098;2023-04-05T03:23:30;3.50;;;2.00;;
16892;SDS011;8563;52.242;9.098;2023-04-05T03:26:04;3.07;;;2.27;;
16892;SDS011;8563;52.242;9.098;2023-04-05T03:28:41;3.57;;;2.27;;
16892;SDS011;8563;52.242;9.098;2023-04-05T03:31:15;2.50;;;2.10;;
16892;SDS011;8563;52.242;9.098;2023-04-05T03:33:49;4.47;;;2.33;;
16892;SDS011;8563;52.242;9.098;2023-04-05T03:36:21;4.13;;;1.87;;
16892;SDS011;8563;52.242;9.098;2023-04-05T03:38:56;3.77;;;2.00;;
16892;SDS011;8563;52.242;9.098;2023-04-05T03:41:28;4.43;;;2.30;;
16892;SDS011;8563;52.242;9.098;2023-04-05T03:44:01;3.80;;;2.07;;
16892;SDS011;8563;52.242;9.098;2023-04-05T03:46:33;2.30;;;1.90;;
16892;SDS011;8563;52.242;9.098;2023-04-05T03:49:10;4.57;;;2.03;;
16892;SDS011;8563;52.242;9.098;2023-04-05T03:51:42;3.93;;;1.93;;
16892;SDS011;8563;52.242;9.098;2023-04-05T03:54:14;5.23;;;2.07;;
16892;SDS011;8563;52.242;9.098;2023-04-05T03:56:46;3.83;;;2.00;;
16892;SDS011;8563;52.242;9.098;2023-04-05T03:59:21;3.03;;;2.13;;
16892;SDS011;8563;52.242;9.098;2023-04-05T04:01:54;5.40;;;2.37;;
16892;SDS011;8563;52.242;9.098;2023-04-05T04:04:29;3.97;;;2.33;;
16892;SDS011;8563;52.242;9.098;2023-04-05T04:07:01;4.10;;;2.00;;
16892;SDS011;8563;52.242;9.098;2023-04-05T04:09:34;3.23;;;2.00;;
16892;SDS011;8563;52.242;9.098;2023-04-05T04:12:12;6.40;;;2.13;;
16892;SDS011;8563;52.242;9.098;2023-04-05T04:14:55;3.00;;;2.20;;
16892;SDS011;8563;52.242;9.098;2023-04-05T04:17:46;3.43;;;2.40;;
16892;SDS011;8563;52.242;9.098;2023-04-05T04:20:46;5.67;;;2.20;;
16892;SDS011;8563;52.242;9.098;2023-04-05T04:23:49;3.30;;;2.10;;
16892;SDS011;8563;52.242;9.098;2023-04-05T04:26:45;3.87;;;2.23;;
16892;SDS011;8563;52.242;9.098;2023-04-05T04:29:34;3.40;;;2.30;;
16892;SDS011;8563;52.242;9.098;2023-04-05T04:32:34;2.40;;;2.20;;
16892;SDS011;8563;52.242;9.098;2023-04-05T04:35:48;2.93;;;2.07;;
16892;SDS011;8563;52.242;9.098;2023-04-05T04:38:23;4.67;;;2.10;;
16892;SDS011;8563;52.242;9.098;2023-04-05T04:41:14;5.23;;;2.67;;
16892;SDS011;8563;52.242;9.098;2023-04-05T04:43:49;3.47;;;1.97;;
16892;SDS011;8563;52.242;9.098;2023-04-05T04:46:53;2.87;;;2.13;;
16892;SDS011;8563;52.242;9.098;2023-04-05T04:49:49;3.10;;;2.07;;
16892;SDS011;8563;52.242;9.098;2023-04-05T04:52:22;3.93;;;2.40;;
16892;SDS011;8563;52.242;9.098;2023-04-05T04:54:54;5.37;;;2.50;;
16892;SDS011;8563;52.242;9.098;2023-04-05T04:57:26;4.57;;;2.30;;
16892;SDS011;8563;52.242;9.098;2023-04-05T04:59:59;5.37;;;2.50;;
16892;SDS011;8563;52.242;9.098;2023-04-05T05:02:31;5.30;;;2.40;;
16892;SDS011;8563;52.242;9.098;2023-04-05T05:05:03;4.17;;;2.17;;
16892;SDS011;8563;52.242;9.098;2023-04-05T05:07:38;4.53;;;2.50;;
16892;SDS011;8563;52.242;9.098;2023-04-05T05:10:12;4.20;;;2.40;;
16892;SDS011;8563;52.242;9.098;2023-04-05T05:12:45;5.80;;;2.40;;
16892;SDS011;8563;52.242;9.098;2023-04-05T05:15:18;5.90;;;2.20;;
16892;SDS011;8563;52.242;9.098;2023-04-05T05:17:51;3.90;;;2.37;;
16892;SDS011;8563;52.242;9.098;2023-04-05T05:20:25;4.40;;;2.10;;
16892;SDS011;8563;52.242;9.098;2023-04-05T05:22:59;3.43;;;2.43;;
16892;SDS011;8563;52.242;9.098;2023-04-05T05:25:33;3.70;;;2.30;;
16892;SDS011;8563;52.242;9.098;2023-04-05T05:28:05;2.80;;;2.20;;
16892;SDS011;8563;52.242;9.098;2023-04-05T05:30:37;4.77;;;2.30;;
16892;SDS011;8563;52.242;9.098;2023-04-05T05:33:09;3.80;;;2.43;;
16892;SDS011;8563;52.242;9.098;2023-04-05T05:35:46;5.00;;;2.40;;
16892;SDS011;8563;52.242;9.098;2023-04-05T05:38:20;4.10;;;2.40;;
16892;SDS011;8563;52.242;9.098;2023-04-05T05:40:56;4.73;;;2.27;;
16892;SDS011;8563;52.242;9.098;2023-04-05T05:43:28;5.73;;;3.00;;
16892;SDS011;8563;52.242;9.098;2023-04-05T05:46:00;4.70;;;2.60;;
16892;SDS011;8563;52.242;9.098;2023-04-05T05:48:32;3.73;;;2.27;;
16892;SDS011;8563;52.242;9.098;2023-04-05T05:51:05;3.37;;;2.37;;
16892;SDS011;8563;52.242;9.098;2023-04-05T05:53:40;4.50;;;2.60;;
16892;SDS011;8563;52.242;9.098;2023-04-05T05:56:12;5.80;;;2.13;;
16892;SDS011;8563;52.242;9.098;2023-04-05T05:58:44;3.90;;;2.33;;
16892;SDS011;8563;52.242;9.098;2023-04-05T06:01:17;5.03;;;2.87;;
16892;SDS011;8563;52.242;9.098;2023-04-05T06:03:52;7.27;;;2.90;;
16892;SDS011;8563;52.242;9.098;2023-04-05T06:06:24;4.17;;;2.80;;
16892;SDS011;8563;52.242;9.098;2023-04-05T06:09:00;6.57;;;2.53;;
16892;SDS011;8563;52.242;9.098;2023-04-05T06:11:33;3.87;;;2.30;;
16892;SDS011;8563;52.242;9.098;2023-04-05T06:14:05;4.70;;;2.20;;
16892;SDS011;8563;52.242;9.098;2023-04-05T06:16:38;4.97;;;2.50;;
16892;SDS011;8563;52.242;9.098;2023-04-05T06:19:10;5.33;;;2.40;;
16892;SDS011;8563;52.242;9.098;2023-04-05T06:21:42;5.23;;;2.60;;
16892;SDS011;8563;52.242;9.098;2023-04-05T06:24:16;4.43;;;2.63;;
16892;SDS011;8563;52.242;9.098;2023-04-05T06:26:48;4.00;;;2.43;;
16892;SDS011;8563;52.242;9.098;2023-04-05T06:29:21;5.63;;;3.30;;
16892;SDS011;8563;52.242;9.098;2023-04-05T06:31:54;6.63;;;3.00;;
16892;SDS011;8563;52.242;9.098;2023-04-05T06:34:26;4.77;;;3.30;;
16892;SDS011;8563;52.242;9.098;2023-04-05T06:36:58;4.00;;;2.80;;
16892;SDS011;8563;52.242;9.098;2023-04-05T06:39:31;6.03;;;3.70;;
16892;SDS011;8563;52.242;9.098;2023-04-05T06:42:04;6.33;;;3.77;;
16892;SDS011;8563;52.242;9.098;2023-04-05T06:44:43;9.10;;;4.00;;
16892;SDS011;8563;52.242;9.098;2023-04-05T06:47:16;6.90;;;3.93;;
16892;SDS011;8563;52.242;9.098;2023-04-05T06:49:48;8.40;;;4.00;;
16892;SDS011;8563;52.242;9.098;2023-04-05T06:52:20;6.57;;;3.80;;
16892;SDS011;8563;52.242;9.098;2023-04-05T06:54:53;5.43;;;3.43;;
16892;SDS011;8563;52.242;9.098;2023-04-05T06:57:26;8.10;;;3.23;;
16892;SDS011;8563;52.242;9.098;2023-04-05T06:59:58;4.77;;;2.73;;
16892;SDS011;8563;52.242;9.098;2023-04-05T07:02:31;4.47;;;3.07;;
16892;SDS011;8563;52.242;9.098;2023-04-05T07:05:04;5.37;;;2.90;;
16892;SDS011;8563;52.242;9.098;2023-04-05T07:07:38;5.33;;;2.47;;
16892;SDS011;8563;52.242;9.098;2023-04-05T07:10:13;5.57;;;2.50;;
16892;SDS011;8563;52.242;9.098;2023-04-05T07:12:45;6.07;;;2.47;;
16892;SDS011;8563;52.242;9.098;2023-04-05T07:15:17;3.93;;;2.43;;
16892;SDS011;8563;52.242;9.098;2023-04-05T07:17:49;6.60;;;2.50;;
16892;SDS011;8563;52.242;9.098;2023-04-05T07:20:21;4.30;;;2.77;;
16892;SDS011;8563;52.242;9.098;2023-04-05T07:22:53;7.37;;;2.80;;
16892;SDS011;8563;52.242;9.098;2023-04-05T07:25:29;6.70;;;2.90;;
16892;SDS011;8563;52.242;9.098;2023-04-05T07:28:01;4.70;;;2.50;;
16892;SDS011;8563;52.242;9.098;2023-04-05T07:30:34;5.07;;;2.57;;
16892;SDS011;8563;52.242;9.098;2023-04-05T07:33:06;3.60;;;2.43;;
16892;SDS011;8563;52.242;9.098;2023-04-05T07:35:39;4.30;;;2.37;;
16892;SDS011;8563;52.242;9.098;2023-04-05T07:38:11;3.10;;;2.30;;
16892;SDS011;8563;52.242;9.098;2023-04-05T07:40:46;3.47;;;2.33;;
16892;SDS011;8563;52.242;9.098;2023-04-05T07:43:18;3.50;;;1.90;;
16892;SDS011;8563;52.242;9.098;2023-04-05T07:45:50;3.17;;;2.10;;
16892;SDS011;8563;52.242;9.098;2023-04-05T07:48:23;3.50;;;2.20;;
16892;SDS011;8563;52.242;9.098;2023-04-05T07:50:55;4.13;;;2.30;;
16892;SDS011;8563;52.242;9.098;2023-04-05T07:53:27;4.23;;;2.27;;
16892;SDS011;8563;52.242;9.098;2023-04-05T07:56:03;3.83;;;2.00;;
16892;SDS011;8563;52.242;9.098;2023-04-05T07:58:36;3.03;;;2.13;;
16892;SDS011;8563;52.242;9.098;2023-04-05T08:01:09;5.10;;;2.40;;
16892;SDS011;8563;52.242;9.098;2023-04-05T08:03:42;3.63;;;2.10;;
16892;SDS011;8563;52.242;9.098;2023-04-05T08:06:14;5.60;;;2.13;;
16892;SDS011;8563;52.242;9.098;2023-04-05T08:08:48;2.90;;;1.73;;
16892;SDS011;8563;52.242;9.098;2023-04-05T08:11:22;3.60;;;1.90;;
16892;SDS011;8563;52.242;9.098;2023-04-05T08:13:55;2.67;;;1.87;;
16892;SDS011;8563;52.242;9.098;2023-04-05T08:16:27;3.83;;;1.90;;
16892;SDS011;8563;52.242;9.098;2023-04-05T08:19:00;3.40;;;1.80;;
16892;SDS011;8563;52.242;9.098;2023-04-05T08:21:32;3.50;;;2.00;;
16892;SDS011;8563;52.242;9.098;2023-04-05T08:24:04;3.03;;;1.60;;
16892;SDS011;8563;52.242;9.098;2023-04-05T08:26:38;4.20;;;2.17;;
16892;SDS011;8563;52.242;9.098;2023-04-05T08:29:11;3.07;;;1.97;;
16892;SDS011;8563;52.242;9.098;2023-04-05T08:31:43;2.93;;;2.07;;
16892;SDS011;8563;52.242;9.098;2023-04-05T08:34:16;3.80;;;2.00;;
16892;SDS011;8563;52.242;9.098;2023-04-05T08:36:48;2.67;;;1.60;;
16892;SDS011;8563;52.242;9.098;2023-04-05T08:39:20;3.20;;;1.70;;
16892;SDS011;8563;52.242;9.098;2023-04-05T08:41:57;2.23;;;1.37;;
16892;SDS011;8563;52.242;9.098;2023-04-05T08:44:35;3.43;;;1.67;;
16892;SDS011;8563;52.242;9.098;2023-04-05T08:47:10;2.33;;;1.60;;
16892;SDS011;8563;52.242;9.098;2023-04-05T08:49:47;3.40;;;1.50;;
16892;SDS011;8563;52.242;9.098;2023-04-05T08:52:20;3.40;;;1.47;;
16892;SDS011;8563;52.242;9.098;2023-04-05T08:54:52;3.67;;;1.57;;
16892;SDS011;8563;52.242;9.098;2023-04-05T08:57:27;3.53;;;1.50;;
16892;SDS011;8563;52.242;9.098;2023-04-05T09:00:01;1.50;;;1.07;;
16892;SDS011;8563;52.242;9.098;2023-04-05T09:02:34;4.70;;;1.40;;
16892;SDS011;8563;52.242;9.098;2023-04-05T09:05:08;4.10;;;1.83;;
16892;SDS011;8563;52.242;9.098;2023-04-05T09:07:43;1.90;;;1.10;;
16892;SDS011;8563;52.242;9.098;2023-04-05T09:10:17;2.33;;;0.90;;
16892;SDS011;8563;52.242;9.098;2023-04-05T09:12:52;2.13;;;1.20;;
16892;SDS011;8563;52.242;9.098;2023-04-05T09:15:25;2.23;;;1.20;;
16892;SDS011;8563;52.242;9.098;2023-04-05T09:17:58;1.90;;;1.00;;
16892;SDS011;8563;52.242;9.098;2023-04-05T09:20:30;2.13;;;1.10;;
16892;SDS011;8563;52.242;9.098;2023-04-05T09:23:02;1.67;;;1.10;;
16892;SDS011;8563;52.242;9.098;2023-04-05T09:25:35;2.90;;;1.70;;
16892;SDS011;8563;52.242;9.098;2023-04-05T09:28:10;2.90;;;1.43;;
16892;SDS011;8563;52.242;9.098;2023-04-05T09:30:44;2.17;;;1.30;;
16892;SDS011;8563;52.242;9.098;2023-04-05T09:33:18;2.73;;;1.27;;
16892;SDS011;8563;52.242;9.098;2023-04-05T09:35:51;2.60;;;1.43;;
16892;SDS011;8563;52.242;9.098;2023-04-05T09:38:40;3.30;;;1.40;;
16892;SDS011;8563;52.242;9.098;2023-04-05T09:41:13;1.40;;;1.17;;
16892;SDS011;8563;52.242;9.098;2023-04-05T09:43:47;2.83;;;1.40;;
16892;SDS011;8563;52.242;9.098;2023-04-05T09:46:30;2.03;;;1.30;;
16892;SDS011;8563;52.242;9.098;2023-04-05T09:49:03;2.00;;;1.47;;
16892;SDS011;8563;52.242;9.098;2023-04-05T09:51:36;2.07;;;1.40;;
16892;SDS011;8563;52.242;9.098;2023-04-05T09:54:12;2.00;;;1.57;;
16892;SDS011;8563;52.242;9.098;2023-04-05T09:56:52;2.93;;;1.60;;
16892;SDS011;8563;52.242;9.098;2023-04-05T09:59:27;3.50;;;1.63;;
16892;SDS011;8563;52.242;9.098;2023-04-05T10:02:00;3.17;;;1.60;;
16892;SDS011;8563;52.242;9.098;2023-04-05T10:04:37;3.23;;;1.60;;
16892;SDS011;8563;52.242;9.098;2023-04-05T10:07:10;4.30;;;1.83;;
16892;SDS011;8563;52.242;9.098;2023-04-05T10:09:44;3.27;;;1.67;;
16892;SDS011;8563;52.242;9.098;2023-04-05T10:12:20;4.70;;;1.73;;
16892;SDS011;8563;52.242;9.098;2023-04-05T10:14:57;3.13;;;1.60;;
16892;SDS011;8563;52.242;9.098;2023-04-05T10:17:30;3.40;;;1.43;;
16892;SDS011;8563;52.242;9.098;2023-04-05T10:20:09;3.33;;;1.80;;
16892;SDS011;8563;52.242;9.098;2023-04-05T10:22:52;7.13;;;1.60;;
16892;SDS011;8563;52.242;9.098;2023-04-05T10:25:41;3.37;;;1.30;;
16892;SDS011;8563;52.242;9.098;2023-04-05T10:28:22;3.60;;;1.97;;
16892;SDS011;8563;52.242;9.098;2023-04-05T10:31:04;4.37;;;1.60;;
16892;SDS011;8563;52.242;9.098;2023-04-05T10:33:42;4.93;;;1.80;;
16892;SDS011;8563;52.242;9.098;2023-04-05T10:36:17;2.67;;;1.70;;
16892;SDS011;8563;52.242;9.098;2023-04-05T10:39:08;2.10;;;1.47;;
16892;SDS011;8563;52.242;9.098;2023-04-05T10:41:45;2.80;;;1.90;;
16892;SDS011;8563;52.242;9.098;2023-04-05T10:44:18;4.17;;;1.70;;
16892;SDS011;8563;52.242;9.098;2023-04-05T10:46:52;2.47;;;1.50;;
16892;SDS011;8563;52.242;9.098;2023-04-05T10:49:31;3.00;;;1.50;;
16892;SDS011;8563;52.242;9.098;2023-04-05T10:52:07;2.90;;;1.70;;
16892;SDS011;8563;52.242;9.098;2023-04-05T10:54:40;2.97;;;1.80;;
16892;SDS011;8563;52.242;9.098;2023-04-05T10:57:13;3.00;;;1.70;;
16892;SDS011;8563;52.242;9.098;2023-04-05T10:59:48;3.43;;;1.53;;
16892;SDS011;8563;52.242;9.098;2023-04-05T11:02:23;2.93;;;1.70;;
16892;SDS011;8563;52.242;9.098;2023-04-05T11:04:56;3.73;;;1.70;;
16892;SDS011;8563;52.242;9.098;2023-04-05T11:07:41;5.50;;;1.70;;
16892;SDS011;8563;52.242;9.098;2023-04-05T11:10:14;2.33;;;1.40;;
16892;SDS011;8563;52.242;9.098;2023-04-05T11:13:07;2.47;;;1.53;;
16892;SDS011;8563;52.242;9.098;2023-04-05T11:15:39;2.73;;;1.40;;
16892;SDS011;8563;52.242;9.098;2023-04-05T11:18:20;2.47;;;1.80;;
16892;SDS011;8563;52.242;9.098;2023-04-05T11:20:52;3.30;;;1.50;;
16892;SDS011;8563;52.242;9.098;2023-04-05T11:26:32;3.07;;;1.33;;
16892;SDS011;8563;52.242;9.098;2023-04-05T11:32:25;2.57;;;1.70;;
16892;SDS011;8563;52.242;9.098;2023-04-05T11:35:13;2.67;;;1.90;;
16892;SDS011;8563;52.242;9.098;2023-04-05T11:38:04;4.13;;;2.00;;
16892;SDS011;8563;52.242;9.098;2023-04-05T11:40:38;3.70;;;2.00;;
16892;SDS011;8563;52.242;9.098;2023-04-05T11:43:12;2.30;;;1.63;;
16892;SDS011;8563;52.242;9.098;2023-04-05T11:45:44;3.60;;;1.90;;
16892;SDS011;8563;52.242;9.098;2023-04-05T11:48:17;3.20;;;1.77;;
16892;SDS011;8563;52.242;9.098;2023-04-05T11:50:50;3.03;;;1.70;;
16892;SDS011;8563;52.242;9.098;2023-04-05T11:53:25;2.97;;;1.80;;
16892;SDS011;8563;52.242;9.098;2023-04-05T11:55:57;2.23;;;1.87;;
16892;SDS011;8563;52.242;9.098;2023-04-05T11:58:38;2.73;;;1.77;;
16892;SDS011;8563;52.242;9.098;2023-04-05T12:01:10;2.97;;;1.50;;
16892;SDS011;8563;52.242;9.098;2023-04-05T12:03:42;2.00;;;1.80;;
16892;SDS011;8563;52.242;9.098;2023-04-05T12:06:16;2.90;;;1.93;;
16892;SDS011;8563;52.242;9.098;2023-04-05T12:08:52;1.97;;;1.40;;
16892;SDS011;8563;52.242;9.098;2023-04-05T12:11:25;4.10;;;1.63;;
16892;SDS011;8563;52.242;9.098;2023-04-05T12:13:59;3.07;;;1.90;;
16892;SDS011;8563;52.242;9.098;2023-04-05T12:16:31;3.57;;;1.87;;
16892;SDS011;8563;52.242;9.098;2023-04-05T12:19:03;2.70;;;2.07;;
16892;SDS011;8563;52.242;9.098;2023-04-05T12:21:37;2.70;;;1.90;;
16892;SDS011;8563;52.242;9.098;2023-04-05T12:24:09;5.13;;;1.77;;
16892;SDS011;8563;52.242;9.098;2023-04-05T12:26:41;3.40;;;1.90;;
16892;SDS011;8563;52.242;9.098;2023-04-05T12:29:13;2.70;;;1.80;;
16892;SDS011;8563;52.242;9.098;2023-04-05T12:31:46;3.70;;;2.00;;
16892;SDS011;8563;52.242;9.098;2023-04-05T12:34:22;3.57;;;1.80;;
16892;SDS011;8563;52.242;9.098;2023-04-05T12:36:57;3.57;;;1.80;;
16892;SDS011;8563;52.242;9.098;2023-04-05T12:39:32;2.93;;;1.83;;
16892;SDS011;8563;52.242;9.098;2023-04-05T12:42:04;3.53;;;1.97;;
16892;SDS011;8563;52.242;9.098;2023-04-05T12:44:36;3.30;;;1.63;;
16892;SDS011;8563;52.242;9.098;2023-04-05T12:47:08;2.63;;;1.67;;
16892;SDS011;8563;52.242;9.098;2023-04-05T12:49:41;2.67;;;1.60;;
16892;SDS011;8563;52.242;9.098;2023-04-05T12:52:19;2.03;;;1.80;;
16892;SDS011;8563;52.242;9.098;2023-04-05T12:54:54;4.03;;;2.00;;
16892;SDS011;8563;52.242;9.098;2023-04-05T12:57:30;3.50;;;2.00;;
16892;SDS011;8563;52.242;9.098;2023-04-05T13:00:02;3.63;;;2.03;;
16892;SDS011;8563;52.242;9.098;2023-04-05T13:02:36;3.13;;;1.90;;
16892;SDS011;8563;52.242;9.098;2023-04-05T13:05:08;3.67;;;2.00;;
16892;SDS011;8563;52.242;9.098;2023-04-05T13:07:42;5.40;;;2.10;;
16892;SDS011;8563;52.242;9.098;2023-04-05T13:10:14;3.70;;;1.70;;
16892;SDS011;8563;52.242;9.098;2023-04-05T13:12:46;3.67;;;2.07;;
16892;SDS011;8563;52.242;9.098;2023-04-05T13:15:19;3.83;;;1.80;;
16892;SDS011;8563;52.242;9.098;2023-04-05T13:17:52;4.30;;;1.93;;
16892;SDS011;8563;52.242;9.098;2023-04-05T13:20:24;3.07;;;2.10;;
16892;SDS011;8563;52.242;9.098;2023-04-05T13:22:57;3.60;;;1.77;;
16892;SDS011;8563;52.242;9.098;2023-04-05T13:25:29;3.50;;;1.93;;
16892;SDS011;8563;52.242;9.098;2023-04-05T13:28:01;2.47;;;2.03;;
16892;SDS011;8563;52.242;9.098;2023-04-05T13:30:33;4.87;;;1.90;;
16892;SDS011;8563;52.242;9.098;2023-04-05T13:33:06;3.30;;;1.80;;
16892;SDS011;8563;52.242;9.098;2023-04-05T13:35:38;2.90;;;2.07;;
16892;SDS011;8563;52.242;9.098;2023-04-05T13:38:12;2.93;;;2.10;;
16892;SDS011;8563;52.242;9.098;2023-04-05T13:40:44;2.50;;;1.70;;
16892;SDS011;8563;52.242;9.098;2023-04-05T13:43:16;2.20;;;1.90;;
16892;SDS011;8563;52.242;9.098;2023-04-05T13:45:48;3.33;;;1.77;;
16892;SDS011;8563;52.242;9.098;2023-04-05T13:48:20;3.00;;;1.77;;
16892;SDS011;8563;52.242;9.098;2023-04-05T13:50:53;3.00;;;2.10;;
16892;SDS011;8563;52.242;9.098;2023-04-05T13:53:26;4.07;;;1.97;;
16892;SDS011;8563;52.242;9.098;2023-04-05T13:55:58;3.00;;;1.93;;
16892;SDS011;8563;52.242;9.098;2023-04-05T13:58:30;2.50;;;1.83;;
16892;SDS011;8563;52.242;9.098;2023-04-05T14:01:02;3.93;;;2.00;;
16892;SDS011;8563;52.242;9.098;2023-04-05T14:03:35;2.80;;;1.80;;
16892;SDS011;8563;52.242;9.098;2023-04-05T14:06:07;3.17;;;1.90;;
16892;SDS011;8563;52.242;9.098;2023-04-05T14:08:41;2.90;;;1.83;;
16892;SDS011;8563;52.242;9.098;2023-04-05T14:11:13;3.63;;;2.10;;
16892;SDS011;8563;52.242;9.098;2023-04-05T14:13:45;2.83;;;1.90;;
16892;SDS011;8563;52.242;9.098;2023-04-05T14:16:17;2.97;;;1.83;;
16892;SDS011;8563;52.242;9.098;2023-04-05T14:18:50;5.00;;;1.80;;
16892;SDS011;8563;52.242;9.098;2023-04-05T14:21:22;4.03;;;1.97;;
16892;SDS011;8563;52.242;9.098;2023-04-05T14:23:58;2.70;;;1.73;;
16892;SDS011;8563;52.242;9.098;2023-04-05T14:26:30;2.87;;;1.93;;
16892;SDS011;8563;52.242;9.098;2023-04-05T14:29:03;4.67;;;2.10;;
16892;SDS011;8563;52.242;9.098;2023-04-05T14:31:35;3.57;;;2.00;;
16892;SDS011;8563;52.242;9.098;2023-04-05T14:34:08;3.93;;;1.97;;
16892;SDS011;8563;52.242;9.098;2023-04-05T14:36:40;4.37;;;2.00;;
16892;SDS011;8563;52.242;9.098;2023-04-05T14:39:14;3.17;;;2.17;;
16892;SDS011;8563;52.242;9.098;2023-04-05T14:41:47;3.23;;;2.10;;
16892;SDS011;8563;52.242;9.098;2023-04-05T14:44:21;4.47;;;2.00;;
16892;SDS011;8563;52.242;9.098;2023-04-05T14:46:56;3.17;;;2.00;;
16892;SDS011;8563;52.242;9.098;2023-04-05T14:49:28;2.63;;;1.80;;
16892;SDS011;8563;52.242;9.098;2023-04-05T14:52:00;4.70;;;2.30;;
16892;SDS011;8563;52.242;9.098;2023-04-05T14:54:34;3.47;;;2.00;;
16892;SDS011;8563;52.242;9.098;2023-04-05T14:57:06;3.53;;;2.27;;
16892;SDS011;8563;52.242;9.098;2023-04-05T14:59:39;2.83;;;2.10;;
16892;SDS011;8563;52.242;9.098;2023-04-05T15:02:12;2.57;;;1.90;;
16892;SDS011;8563;52.242;9.098;2023-04-05T15:04:45;2.73;;;1.93;;
16892;SDS011;8563;52.242;9.098;2023-04-05T15:07:17;5.33;;;2.07;;
16892;SDS011;8563;52.242;9.098;2023-04-05T15:09:51;2.77;;;1.90;;
16892;SDS011;8563;52.242;9.098;2023-04-05T15:12:23;3.70;;;2.27;;
16892;SDS011;8563;52.242;9.098;2023-04-05T15:14:56;2.77;;;1.77;;
16892;SDS011;8563;52.242;9.098;2023-04-05T15:17:29;4.87;;;2.60;;
16892;SDS011;8563;52.242;9.098;2023-04-05T15:20:01;3.63;;;1.97;;
16892;SDS011;8563;52.242;9.098;2023-04-05T15:22:33;3.77;;;2.20;;
16892;SDS011;8563;52.242;9.098;2023-04-05T15:25:11;2.33;;;1.90;;
16892;SDS011;8563;52.242;9.098;2023-04-05T15:27:43;4.37;;;2.00;;
16892;SDS011;8563;52.242;9.098;2023-04-05T15:30:16;2.43;;;1.90;;
16892;SDS011;8563;52.242;9.098;2023-04-05T15:32:48;3.00;;;2.07;;
16892;SDS011;8563;52.242;9.098;2023-04-05T15:35:22;3.43;;;2.20;;
16892;SDS011;8563;52.242;9.098;2023-04-05T15:37:54;4.60;;;2.17;;
16892;SDS011;8563;52.242;9.098;2023-04-05T15:40:29;3.00;;;1.80;;
16892;SDS011;8563;52.242;9.098;2023-04-05T15:43:01;4.30;;;2.07;;
16892;SDS011;8563;52.242;9.098;2023-04-05T15:45:33;4.50;;;2.10;;
16892;SDS011;8563;52.242;9.098;2023-04-05T15:48:06;5.20;;;2.23;;
16892;SDS011;8563;52.242;9.098;2023-04-05T15:50:38;3.47;;;2.20;;
16892;SDS011;8563;52.242;9.098;2023-04-05T15:53:10;4.37;;;1.90;;
16892;SDS011;8563;52.242;9.098;2023-04-05T15:55:44;2.87;;;1.77;;